Airfield :
LOGIN :

Register | Disclaimer

   EN    FR    IT 

 










Legend :    VFR   Marginal VFR   IFR   Intensive IFR   Very Intensive IFR
Visi :
Ceiling :
>= 8 km
>= 3000ft
5 to 8 km
1000 to 3000 ft
1500m to 5 km
500 to 1000 ft
800 to 1500m
200 to 500 ft
< 800m
< 200 ft
Symbols :   Thunderstorms  Fog  Heavy snow  Heavy precipitations  Wind > 20 kt
SIGMETs :     Misc.  Thunderstorms  Icing  Turbulence  Mountain Waves  Volcanic Ashes






- Airport Elevation : 650 ft
- IATA code : ZJI


LSZL - Locarno

CURRENT METAR :
  • 261720Z AUTO 27005KT 240V300 9999NDV SCT044 BKN052 05/M03 Q1006 RMK

EXPIRED METARs :
  • 261650Z AUTO 27013KT 240V310 9999NDV FEW039 BKN050 BKN066 07/M06 Q1005 RMK
  • 261620Z AUTO 31007KT 260V350 9999NDV FEW059 08/M08 Q1003 RMK
  • 261550Z AUTO 28010KT 240V340 9999NDV FEW074 09/M09 Q1003 RMK
  • 261520Z 30007KT 270V350 9999 FEW070 10/M13 Q1002 RMK BLU+
  • 261450Z 30009KT 250V350 9999 FEW080 11/M13 Q1001 RMK BLU+

TAF TAF LSZL
Valid from the 26 at 18:00 until the 27 at 03:00 UTC


261725Z 2618/2703 27010KT 9999 FEW040 BKN050
TEMPO 2618/2620 08012G30KT
BECMG 2618/2621 VRB03KT



MET'MAP, your aeronautical weather chart ! - Copyright ORBIFLY December 2007 - Disclaimer

ORBIFLY MET'MAP TEAM :

Programming & Development : Alexandra Zaïnal
Concept & original design : Baudouin d'Aumeries
Assistance for programming : Marc-Olivier Méhu
Technical & hardware support : Manuel Goepfert

Contact : metmap@orbifly.com




SOURCES & CREDITS :

   NOAA